Ouray, CO

7:15 PM MDT on May 28, 2015 (GMT -0600)
Ouray | | Change Station
CLOSE
Current Station
Personal Weather Station
Location: Ouray, CO
Elevation: 7736 ft
Nearby Weather Stations

Elev 7736 ft 38.03 °N, 107.67 °W | Updated 22 minutes ago

Rain
Rain
46.1 °F
Feels Like 46 °F
N
0.0
Wind Variable Wind from SSW
Gusts 0.0 mph

Today
High -- | Low -- °F
--% Chance of Precip.
Yesterday
High -- | Low -- °F
Precip. -- in
5:51 AM 8:24 PM
Waxing Gibbous, 80% visible
Pressure 30.35 in
Visibility 10.0 miles
Clouds Scattered Clouds 2600 ft
Scattered Clouds 3700 ft
Mostly Cloudy 4900 ft
Windchill 46 °F
Dew Point 41 °F
Humidity 82%
Rainfall 0.18 in
Snow Depth Not available.
UV 1 out of 12
Pollen 7.30 out of 12
Air Quality Not available.
Flu Activity Sporadic
METAR KTEX 290055Z AUTO 29016G24KT 10SM RA SCT026 SCT037 BKN049 08/04 A3035 RMK AO2 P0004 T00770041

More Conditions Fewer Conditions

Pressure 30.35 in
Visibility 10.0 miles
Clouds Scattered Clouds 2600 ft
Scattered Clouds 3700 ft
Mostly Cloudy 4900 ft
Windchill 46 °F
Dew Point 41 °F
Humidity 82%
Rainfall 0.18 in
Snow Depth Not available.
UV 1 out of 12
Pollen 7.30 out of 12
Air Quality Not available.
Flu Activity Sporadic
METAR KTEX 290055Z AUTO 29016G24KT 10SM RA SCT026 SCT037 BKN049 08/04 A3035 RMK AO2 P0004 T00770041

More Conditions Fewer Conditions

10-Day Weather Forecast

Almanac

Astronomy

May. 28, 2015 Rise Set
Actual Time
Civil Twilight
Nautical Twilight
Astronomical Twilight
Moon
Length of Visible Light
Length of Day
Tomorrow will be .
, % of the Moon is Illuminated

Today's Extremes

State Highs State Lows

Community

WunderPhotos

Upload Photos

1,825,106 photos uploaded!

WunderBlogs® & News

Nearby

Air Quality

  Air Quality AQ Index Pollutant
Not available.

Snow Depth

Station Depth Elevation

Earthquake Activity

City Distance Mag. Time & Date
Minimum magnitude displayed is 2.5.

Coastal Water Temperatures

Place Temperature

Stations

Nearby Weather Stations

Station Location Temp. Windchill Dew Point Humidity Wind Precip. Elev Updated Type